West Harpersfield, New York
Current Conditions -  °F | °C
As of 3:55 PM on Friday 19 Dec 2014 (Local Time) from KNY0 Reporting Station
Overcast Overcast  
Wind Chill: 14°   Ceiling: 1600
Heat Index: 24°   Visibility: 10mi
Dew Point: 19°   Wind: 10mph
Humidity: 82%   Direction: 280°W
Pressure: 30.08"   Gusts: NA
Location:  42.455°N, 74.6929°W
Report Text: KNY0 192055Z AUTO 28009KT 10SM OVC016 M04/M07 A3008 RMK AO2 T10441071
Loading
Personal Weather Stations






























Interactive Weather Map New forecast layout! Learn more

10-Day Weather Forecast

Advertisements
Track Severe Weather on mobile